sensor_id;sensor_type;location;lat;lon;timestamp;temperature;humidity
11597;DHT22;5854;48.072;16.286;2022-07-05T00:00:49;21.60;66.00
11597;DHT22;5854;48.072;16.286;2022-07-05T00:03:17;21.90;64.70
11597;DHT22;5854;48.072;16.286;2022-07-05T00:05:44;21.90;66.60
11597;DHT22;5854;48.072;16.286;2022-07-05T00:08:12;21.70;67.00
11597;DHT22;5854;48.072;16.286;2022-07-05T00:10:41;21.60;66.00
11597;DHT22;5854;48.072;16.286;2022-07-05T00:13:09;21.50;66.30
11597;DHT22;5854;48.072;16.286;2022-07-05T00:15:36;21.40;66.40
11597;DHT22;5854;48.072;16.286;2022-07-05T00:18:04;21.50;66.50
11597;DHT22;5854;48.072;16.286;2022-07-05T00:20:31;21.40;64.10
11597;DHT22;5854;48.072;16.286;2022-07-05T00:22:59;21.40;68.60
11597;DHT22;5854;48.072;16.286;2022-07-05T00:25:26;21.30;67.60
11597;DHT22;5854;48.072;16.286;2022-07-05T00:27:55;21.40;65.10
11597;DHT22;5854;48.072;16.286;2022-07-05T00:30:23;21.40;66.50
11597;DHT22;5854;48.072;16.286;2022-07-05T00:32:50;21.30;66.30
11597;DHT22;5854;48.072;16.286;2022-07-05T00:35:18;21.40;65.80
11597;DHT22;5854;48.072;16.286;2022-07-05T00:37:45;21.40;67.00
11597;DHT22;5854;48.072;16.286;2022-07-05T00:40:12;21.30;66.20
11597;DHT22;5854;48.072;16.286;2022-07-05T00:42:40;21.20;66.80
11597;DHT22;5854;48.072;16.286;2022-07-05T00:45:10;21.30;66.10
11597;DHT22;5854;48.072;16.286;2022-07-05T00:47:38;21.20;66.50
11597;DHT22;5854;48.072;16.286;2022-07-05T00:50:08;21.30;65.70
11597;DHT22;5854;48.072;16.286;2022-07-05T00:52:37;21.30;66.00
11597;DHT22;5854;48.072;16.286;2022-07-05T00:55:06;21.20;66.00
11597;DHT22;5854;48.072;16.286;2022-07-05T00:57:35;21.10;65.00
11597;DHT22;5854;48.072;16.286;2022-07-05T01:00:05;21.20;64.80
11597;DHT22;5854;48.072;16.286;2022-07-05T01:02:35;21.20;65.20
11597;DHT22;5854;48.072;16.286;2022-07-05T01:05:04;21.30;65.40
11597;DHT22;5854;48.072;16.286;2022-07-05T01:07:32;21.10;65.60
11597;DHT22;5854;48.072;16.286;2022-07-05T01:10:03;21.20;66.70
11597;DHT22;5854;48.072;16.286;2022-07-05T01:12:32;21.20;66.50
11597;DHT22;5854;48.072;16.286;2022-07-05T01:15:00;21.20;65.70
11597;DHT22;5854;48.072;16.286;2022-07-05T01:17:28;21.20;66.30
11597;DHT22;5854;48.072;16.286;2022-07-05T01:20:01;21.00;69.20
11597;DHT22;5854;48.072;16.286;2022-07-05T01:22:49;21.10;66.90
11597;DHT22;5854;48.072;16.286;2022-07-05T01:25:21;21.10;67.30
11597;DHT22;5854;48.072;16.286;2022-07-05T01:27:50;21.20;67.00
11597;DHT22;5854;48.072;16.286;2022-07-05T01:30:23;21.10;65.60
11597;DHT22;5854;48.072;16.286;2022-07-05T01:32:53;21.10;67.20
11597;DHT22;5854;48.072;16.286;2022-07-05T01:35:24;21.10;66.70
11597;DHT22;5854;48.072;16.286;2022-07-05T01:42:00;21.00;66.30
11597;DHT22;5854;48.072;16.286;2022-07-05T01:44:27;21.00;69.40
11597;DHT22;5854;48.072;16.286;2022-07-05T01:47:00;20.90;70.20
11597;DHT22;5854;48.072;16.286;2022-07-05T01:49:36;20.90;68.40
11597;DHT22;5854;48.072;16.286;2022-07-05T01:52:12;20.80;70.90
11597;DHT22;5854;48.072;16.286;2022-07-05T01:54:41;20.90;71.20
11597;DHT22;5854;48.072;16.286;2022-07-05T02:42:11;20.80;67.90
11597;DHT22;5854;48.072;16.286;2022-07-05T02:47:12;20.70;69.80
11597;DHT22;5854;48.072;16.286;2022-07-05T02:54:49;20.70;68.90
11597;DHT22;5854;48.072;16.286;2022-07-05T03:30:43;20.70;65.40
11597;DHT22;5854;48.072;16.286;2022-07-05T03:33:16;20.80;67.50
11597;DHT22;5854;48.072;16.286;2022-07-05T03:35:44;20.80;66.90
11597;DHT22;5854;48.072;16.286;2022-07-05T03:38:12;20.80;69.10
11597;DHT22;5854;48.072;16.286;2022-07-05T03:40:39;20.60;68.60
11597;DHT22;5854;48.072;16.286;2022-07-05T03:43:07;20.60;65.70
11597;DHT22;5854;48.072;16.286;2022-07-05T05:01:09;20.40;79.40
11597;DHT22;5854;48.072;16.286;2022-07-05T05:03:38;20.40;72.50
11597;DHT22;5854;48.072;16.286;2022-07-05T05:06:06;20.40;81.80
11597;DHT22;5854;48.072;16.286;2022-07-05T05:08:33;20.40;81.30
11597;DHT22;5854;48.072;16.286;2022-07-05T05:11:00;20.30;83.20
11597;DHT22;5854;48.072;16.286;2022-07-05T05:13:27;20.30;79.00
11597;DHT22;5854;48.072;16.286;2022-07-05T05:15:55;20.50;75.80
11597;DHT22;5854;48.072;16.286;2022-07-05T05:18:23;20.60;77.60
11597;DHT22;5854;48.072;16.286;2022-07-05T05:20:52;20.70;79.40
11597;DHT22;5854;48.072;16.286;2022-07-05T05:23:20;20.70;78.40
11597;DHT22;5854;48.072;16.286;2022-07-05T05:25:48;20.60;77.20
11597;DHT22;5854;48.072;16.286;2022-07-05T05:28:15;20.40;82.80
11597;DHT22;5854;48.072;16.286;2022-07-05T05:30:42;20.40;80.70
11597;DHT22;5854;48.072;16.286;2022-07-05T05:33:09;20.40;73.80
11597;DHT22;5854;48.072;16.286;2022-07-05T05:35:38;20.40;78.60
11597;DHT22;5854;48.072;16.286;2022-07-05T05:38:06;20.50;79.60
11597;DHT22;5854;48.072;16.286;2022-07-05T05:40:35;20.50;71.30
11597;DHT22;5854;48.072;16.286;2022-07-05T05:43:03;20.50;70.50
11597;DHT22;5854;48.072;16.286;2022-07-05T05:45:35;20.60;68.50
11597;DHT22;5854;48.072;16.286;2022-07-05T05:48:03;20.80;69.70
11597;DHT22;5854;48.072;16.286;2022-07-05T05:50:36;20.70;69.90
11597;DHT22;5854;48.072;16.286;2022-07-05T05:53:05;20.80;69.80
11597;DHT22;5854;48.072;16.286;2022-07-05T05:55:34;20.70;73.20
11597;DHT22;5854;48.072;16.286;2022-07-05T06:00:48;20.70;70.30
11597;DHT22;5854;48.072;16.286;2022-07-05T06:03:18;20.70;71.80
11597;DHT22;5854;48.072;16.286;2022-07-05T06:05:49;20.70;71.60
11597;DHT22;5854;48.072;16.286;2022-07-05T06:08:17;20.60;72.70
11597;DHT22;5854;48.072;16.286;2022-07-05T06:10:45;20.60;73.60
11597;DHT22;5854;48.072;16.286;2022-07-05T06:13:13;20.50;70.40
11597;DHT22;5854;48.072;16.286;2022-07-05T06:15:42;20.60;69.90
11597;DHT22;5854;48.072;16.286;2022-07-05T06:18:15;20.70;68.10
11597;DHT22;5854;48.072;16.286;2022-07-05T06:20:44;20.70;69.70
11597;DHT22;5854;48.072;16.286;2022-07-05T06:23:14;20.70;71.20
11597;DHT22;5854;48.072;16.286;2022-07-05T06:25:41;20.70;67.50
11597;DHT22;5854;48.072;16.286;2022-07-05T06:28:08;20.70;70.90
11597;DHT22;5854;48.072;16.286;2022-07-05T06:30:37;20.60;68.50
11597;DHT22;5854;48.072;16.286;2022-07-05T06:33:07;20.80;68.30
11597;DHT22;5854;48.072;16.286;2022-07-05T07:27:11;21.10;66.30
11597;DHT22;5854;48.072;16.286;2022-07-05T07:29:40;21.10;67.20
11597;DHT22;5854;48.072;16.286;2022-07-05T07:32:09;21.10;65.70
11597;DHT22;5854;48.072;16.286;2022-07-05T07:34:38;21.10;65.50
11597;DHT22;5854;48.072;16.286;2022-07-05T07:37:06;21.10;67.50
11597;DHT22;5854;48.072;16.286;2022-07-05T07:39:39;21.10;66.50
11597;DHT22;5854;48.072;16.286;2022-07-05T07:42:15;21.20;65.70
11597;DHT22;5854;48.072;16.286;2022-07-05T07:44:48;21.10;65.00
11597;DHT22;5854;48.072;16.286;2022-07-05T07:47:18;21.20;64.50
11597;DHT22;5854;48.072;16.286;2022-07-05T07:49:53;21.20;66.20
11597;DHT22;5854;48.072;16.286;2022-07-05T07:52:21;21.20;65.40
11597;DHT22;5854;48.072;16.286;2022-07-05T07:55:09;21.30;65.40
11597;DHT22;5854;48.072;16.286;2022-07-05T08:00:27;21.40;66.50
11597;DHT22;5854;48.072;16.286;2022-07-05T08:03:02;21.40;64.60
11597;DHT22;5854;48.072;16.286;2022-07-05T08:05:34;21.40;64.70
11597;DHT22;5854;48.072;16.286;2022-07-05T08:08:30;21.50;68.80
11597;DHT22;5854;48.072;16.286;2022-07-05T08:10:58;21.50;63.30
11597;DHT22;5854;48.072;16.286;2022-07-05T08:13:26;21.60;66.60
11597;DHT22;5854;48.072;16.286;2022-07-05T08:16:01;21.60;64.10
11597;DHT22;5854;48.072;16.286;2022-07-05T08:18:29;21.70;64.80
11597;DHT22;5854;48.072;16.286;2022-07-05T08:21:16;21.70;63.60
11597;DHT22;5854;48.072;16.286;2022-07-05T08:24:05;21.70;62.30
11597;DHT22;5854;48.072;16.286;2022-07-05T08:26:39;21.70;65.50
11597;DHT22;5854;48.072;16.286;2022-07-05T08:29:09;21.70;63.70
11597;DHT22;5854;48.072;16.286;2022-07-05T08:31:42;21.60;61.90
11597;DHT22;5854;48.072;16.286;2022-07-05T08:34:13;21.50;64.20
11597;DHT22;5854;48.072;16.286;2022-07-05T08:36:52;21.40;62.90
11597;DHT22;5854;48.072;16.286;2022-07-05T08:39:21;21.50;66.40
11597;DHT22;5854;48.072;16.286;2022-07-05T08:41:51;21.50;62.50
11597;DHT22;5854;48.072;16.286;2022-07-05T08:44:23;21.40;66.30
11597;DHT22;5854;48.072;16.286;2022-07-05T08:46:53;21.40;62.80
11597;DHT22;5854;48.072;16.286;2022-07-05T08:49:25;21.40;64.10
11597;DHT22;5854;48.072;16.286;2022-07-05T08:51:56;21.40;62.80
11597;DHT22;5854;48.072;16.286;2022-07-05T08:54:30;21.40;64.10
11597;DHT22;5854;48.072;16.286;2022-07-05T08:57:06;21.40;63.60
11597;DHT22;5854;48.072;16.286;2022-07-05T08:59:51;21.40;62.80
11597;DHT22;5854;48.072;16.286;2022-07-05T09:02:30;21.40;65.60
11597;DHT22;5854;48.072;16.286;2022-07-05T09:06:12;21.40;63.90
11597;DHT22;5854;48.072;16.286;2022-07-05T09:08:42;21.40;64.30
11597;DHT22;5854;48.072;16.286;2022-07-05T09:11:12;21.30;64.70
11597;DHT22;5854;48.072;16.286;2022-07-05T09:13:42;21.30;63.70
11597;DHT22;5854;48.072;16.286;2022-07-05T09:16:12;21.40;63.70
11597;DHT22;5854;48.072;16.286;2022-07-05T09:18:42;21.50;63.00
11597;DHT22;5854;48.072;16.286;2022-07-05T09:21:15;21.50;64.30
11597;DHT22;5854;48.072;16.286;2022-07-05T09:23:44;21.50;63.30
11597;DHT22;5854;48.072;16.286;2022-07-05T09:26:12;21.70;64.60
11597;DHT22;5854;48.072;16.286;2022-07-05T09:28:54;21.80;62.90
11597;DHT22;5854;48.072;16.286;2022-07-05T09:36:28;21.90;65.10
11597;DHT22;5854;48.072;16.286;2022-07-05T09:38:55;21.80;64.10
11597;DHT22;5854;48.072;16.286;2022-07-05T09:41:23;21.90;65.00
11597;DHT22;5854;48.072;16.286;2022-07-05T09:43:51;21.80;64.20
11597;DHT22;5854;48.072;16.286;2022-07-05T09:46:29;21.70;65.40
11597;DHT22;5854;48.072;16.286;2022-07-05T09:48:57;21.60;62.60
11597;DHT22;5854;48.072;16.286;2022-07-05T09:51:27;21.70;63.50
11597;DHT22;5854;48.072;16.286;2022-07-05T09:53:59;21.70;64.00
11597;DHT22;5854;48.072;16.286;2022-07-05T09:56:28;21.70;62.10
11597;DHT22;5854;48.072;16.286;2022-07-05T09:59:18;21.70;62.30
11597;DHT22;5854;48.072;16.286;2022-07-05T10:01:47;21.90;61.30
11597;DHT22;5854;48.072;16.286;2022-07-05T10:04:19;21.90;61.40
11597;DHT22;5854;48.072;16.286;2022-07-05T10:06:48;21.80;60.90
11597;DHT22;5854;48.072;16.286;2022-07-05T10:09:16;21.70;61.40
11597;DHT22;5854;48.072;16.286;2022-07-05T10:11:46;21.80;62.10
11597;DHT22;5854;48.072;16.286;2022-07-05T10:14:19;21.80;63.00
11597;DHT22;5854;48.072;16.286;2022-07-05T10:16:56;21.80;61.70
11597;DHT22;5854;48.072;16.286;2022-07-05T10:19:31;21.70;61.90
11597;DHT22;5854;48.072;16.286;2022-07-05T10:22:03;21.60;63.00
11597;DHT22;5854;48.072;16.286;2022-07-05T10:24:33;21.60;62.30
11597;DHT22;5854;48.072;16.286;2022-07-05T10:27:06;21.60;62.00
11597;DHT22;5854;48.072;16.286;2022-07-05T10:29:35;21.70;62.70
11597;DHT22;5854;48.072;16.286;2022-07-05T10:32:07;21.70;63.10
11597;DHT22;5854;48.072;16.286;2022-07-05T10:34:37;21.80;61.00
11597;DHT22;5854;48.072;16.286;2022-07-05T10:37:08;21.90;62.20
11597;DHT22;5854;48.072;16.286;2022-07-05T10:39:36;21.70;61.80
11597;DHT22;5854;48.072;16.286;2022-07-05T10:42:05;21.70;64.80
11597;DHT22;5854;48.072;16.286;2022-07-05T10:44:37;21.70;62.50
11597;DHT22;5854;48.072;16.286;2022-07-05T10:47:08;21.80;61.10
11597;DHT22;5854;48.072;16.286;2022-07-05T10:49:41;21.90;61.80
11597;DHT22;5854;48.072;16.286;2022-07-05T10:52:24;22.00;60.60
11597;DHT22;5854;48.072;16.286;2022-07-05T10:55:22;22.00;62.00
11597;DHT22;5854;48.072;16.286;2022-07-05T11:00:34;22.10;62.10
11597;DHT22;5854;48.072;16.286;2022-07-05T11:03:06;22.00;61.90
11597;DHT22;5854;48.072;16.286;2022-07-05T11:05:35;21.90;63.20
11597;DHT22;5854;48.072;16.286;2022-07-05T11:08:04;21.90;62.80
11597;DHT22;5854;48.072;16.286;2022-07-05T11:10:31;21.90;64.60
11597;DHT22;5854;48.072;16.286;2022-07-05T11:12:58;21.80;68.10
11597;DHT22;5854;48.072;16.286;2022-07-05T11:15:26;21.80;64.80
11597;DHT22;5854;48.072;16.286;2022-07-05T11:18:14;21.70;64.80
11597;DHT22;5854;48.072;16.286;2022-07-05T11:20:42;21.70;64.80
11597;DHT22;5854;48.072;16.286;2022-07-05T11:23:13;21.70;67.00
11597;DHT22;5854;48.072;16.286;2022-07-05T11:25:43;21.70;65.40
11597;DHT22;5854;48.072;16.286;2022-07-05T11:28:19;21.70;67.40
11597;DHT22;5854;48.072;16.286;2022-07-05T11:30:58;21.60;63.90
11597;DHT22;5854;48.072;16.286;2022-07-05T11:33:28;21.60;67.10
11597;DHT22;5854;48.072;16.286;2022-07-05T11:35:57;21.60;65.50
11597;DHT22;5854;48.072;16.286;2022-07-05T11:38:27;21.70;65.80
11597;DHT22;5854;48.072;16.286;2022-07-05T11:40:56;21.70;67.60
11597;DHT22;5854;48.072;16.286;2022-07-05T11:43:37;21.60;64.70
11597;DHT22;5854;48.072;16.286;2022-07-05T11:46:06;21.50;66.70
11597;DHT22;5854;48.072;16.286;2022-07-05T11:48:34;21.40;68.60
11597;DHT22;5854;48.072;16.286;2022-07-05T11:51:12;21.40;68.80
11597;DHT22;5854;48.072;16.286;2022-07-05T11:53:41;21.30;68.00
11597;DHT22;5854;48.072;16.286;2022-07-05T11:56:10;21.30;68.40
11597;DHT22;5854;48.072;16.286;2022-07-05T11:58:37;21.20;71.20
11597;DHT22;5854;48.072;16.286;2022-07-05T12:01:04;21.20;70.70
11597;DHT22;5854;48.072;16.286;2022-07-05T12:03:33;21.20;67.90
11597;DHT22;5854;48.072;16.286;2022-07-05T12:06:10;21.30;68.60
11597;DHT22;5854;48.072;16.286;2022-07-05T12:08:38;21.30;71.20
11597;DHT22;5854;48.072;16.286;2022-07-05T12:11:10;21.30;66.70
11597;DHT22;5854;48.072;16.286;2022-07-05T12:13:54;21.20;70.50
11597;DHT22;5854;48.072;16.286;2022-07-05T12:16:22;21.30;66.80
11597;DHT22;5854;48.072;16.286;2022-07-05T12:18:52;21.40;67.50
11597;DHT22;5854;48.072;16.286;2022-07-05T12:21:21;21.40;66.70
11597;DHT22;5854;48.072;16.286;2022-07-05T12:23:49;21.40;67.40
11597;DHT22;5854;48.072;16.286;2022-07-05T12:26:19;21.50;67.50
11597;DHT22;5854;48.072;16.286;2022-07-05T12:28:48;21.50;65.10
11597;DHT22;5854;48.072;16.286;2022-07-05T12:31:22;21.50;66.40
11597;DHT22;5854;48.072;16.286;2022-07-05T12:33:51;21.50;65.60
11597;DHT22;5854;48.072;16.286;2022-07-05T12:36:19;21.40;66.40
11597;DHT22;5854;48.072;16.286;2022-07-05T12:38:49;21.30;68.60
11597;DHT22;5854;48.072;16.286;2022-07-05T12:41:23;21.40;68.50
11597;DHT22;5854;48.072;16.286;2022-07-05T12:43:54;21.30;69.30
11597;DHT22;5854;48.072;16.286;2022-07-05T12:46:35;21.40;68.10
11597;DHT22;5854;48.072;16.286;2022-07-05T12:49:03;21.50;69.00
11597;DHT22;5854;48.072;16.286;2022-07-05T12:51:32;21.60;63.80
11597;DHT22;5854;48.072;16.286;2022-07-05T12:54:00;21.60;67.90
11597;DHT22;5854;48.072;16.286;2022-07-05T12:56:51;21.80;65.90
11597;DHT22;5854;48.072;16.286;2022-07-05T12:59:36;22.00;65.20
11597;DHT22;5854;48.072;16.286;2022-07-05T13:02:05;23.00;62.90
11597;DHT22;5854;48.072;16.286;2022-07-05T13:04:33;23.50;59.90
11597;DHT22;5854;48.072;16.286;2022-07-05T13:07:01;23.20;58.50
11597;DHT22;5854;48.072;16.286;2022-07-05T13:09:33;23.00;64.80
11597;DHT22;5854;48.072;16.286;2022-07-05T13:12:13;22.80;59.20
11597;DHT22;5854;48.072;16.286;2022-07-05T13:14:43;22.90;62.00
11597;DHT22;5854;48.072;16.286;2022-07-05T13:17:12;23.00;58.70
11597;DHT22;5854;48.072;16.286;2022-07-05T13:19:42;22.90;60.40
11597;DHT22;5854;48.072;16.286;2022-07-05T13:22:10;23.10;59.70
11597;DHT22;5854;48.072;16.286;2022-07-05T13:24:38;23.10;60.80
11597;DHT22;5854;48.072;16.286;2022-07-05T13:27:06;23.10;60.30
11597;DHT22;5854;48.072;16.286;2022-07-05T13:29:36;23.10;58.60
11597;DHT22;5854;48.072;16.286;2022-07-05T13:32:04;23.20;56.90
11597;DHT22;5854;48.072;16.286;2022-07-05T13:34:32;23.20;58.30
11597;DHT22;5854;48.072;16.286;2022-07-05T13:36:59;23.10;57.40
11597;DHT22;5854;48.072;16.286;2022-07-05T13:39:27;23.00;57.70
11597;DHT22;5854;48.072;16.286;2022-07-05T13:41:56;22.90;57.60
11597;DHT22;5854;48.072;16.286;2022-07-05T13:44:24;22.90;57.40
11597;DHT22;5854;48.072;16.286;2022-07-05T13:46:55;22.90;57.70
11597;DHT22;5854;48.072;16.286;2022-07-05T13:49:24;22.80;57.70
11597;DHT22;5854;48.072;16.286;2022-07-05T13:51:52;22.80;57.60
11597;DHT22;5854;48.072;16.286;2022-07-05T13:54:19;22.60;57.30
11597;DHT22;5854;48.072;16.286;2022-07-05T13:56:47;22.70;57.80
11597;DHT22;5854;48.072;16.286;2022-07-05T13:59:15;22.70;58.50
11597;DHT22;5854;48.072;16.286;2022-07-05T14:01:42;22.70;57.70
11597;DHT22;5854;48.072;16.286;2022-07-05T14:04:10;22.60;58.20
11597;DHT22;5854;48.072;16.286;2022-07-05T14:06:38;22.60;58.70
11597;DHT22;5854;48.072;16.286;2022-07-05T14:09:06;22.60;59.30
11597;DHT22;5854;48.072;16.286;2022-07-05T14:11:34;22.50;58.30
11597;DHT22;5854;48.072;16.286;2022-07-05T14:14:02;22.40;59.00
11597;DHT22;5854;48.072;16.286;2022-07-05T14:16:29;22.50;58.70
11597;DHT22;5854;48.072;16.286;2022-07-05T14:18:56;22.40;59.50
11597;DHT22;5854;48.072;16.286;2022-07-05T14:21:26;22.30;59.40
11597;DHT22;5854;48.072;16.286;2022-07-05T14:23:53;22.30;59.30
11597;DHT22;5854;48.072;16.286;2022-07-05T14:26:20;22.30;61.70
11597;DHT22;5854;48.072;16.286;2022-07-05T14:28:47;22.30;60.20
11597;DHT22;5854;48.072;16.286;2022-07-05T14:31:15;22.30;59.60
11597;DHT22;5854;48.072;16.286;2022-07-05T14:33:42;22.40;61.10
11597;DHT22;5854;48.072;16.286;2022-07-05T14:36:11;22.40;60.60
11597;DHT22;5854;48.072;16.286;2022-07-05T14:38:39;22.40;60.80
11597;DHT22;5854;48.072;16.286;2022-07-05T14:41:09;22.50;61.30
11597;DHT22;5854;48.072;16.286;2022-07-05T14:43:37;22.60;60.60
11597;DHT22;5854;48.072;16.286;2022-07-05T14:46:04;22.70;61.70
11597;DHT22;5854;48.072;16.286;2022-07-05T14:48:33;22.80;61.40
11597;DHT22;5854;48.072;16.286;2022-07-05T14:51:00;22.80;60.70
11597;DHT22;5854;48.072;16.286;2022-07-05T14:53:28;22.90;60.60
11597;DHT22;5854;48.072;16.286;2022-07-05T14:55:56;23.10;62.00
11597;DHT22;5854;48.072;16.286;2022-07-05T14:58:25;23.10;61.10
11597;DHT22;5854;48.072;16.286;2022-07-05T15:00:57;23.20;61.30
11597;DHT22;5854;48.072;16.286;2022-07-05T15:06:01;23.20;60.90
11597;DHT22;5854;48.072;16.286;2022-07-05T15:18:56;23.80;59.80
11597;DHT22;5854;48.072;16.286;2022-07-05T15:24:10;24.00;58.20
11597;DHT22;5854;48.072;16.286;2022-07-05T15:26:37;24.00;59.40
11597;DHT22;5854;48.072;16.286;2022-07-05T15:29:06;23.90;59.10
11597;DHT22;5854;48.072;16.286;2022-07-05T15:31:36;23.70;59.20
11597;DHT22;5854;48.072;16.286;2022-07-05T15:34:05;23.50;60.30
11597;DHT22;5854;48.072;16.286;2022-07-05T15:36:32;23.40;61.00
11597;DHT22;5854;48.072;16.286;2022-07-05T15:39:00;23.20;61.60
11597;DHT22;5854;48.072;16.286;2022-07-05T15:41:29;23.00;62.60
11597;DHT22;5854;48.072;16.286;2022-07-05T15:43:57;22.90;64.10
11597;DHT22;5854;48.072;16.286;2022-07-05T15:46:24;22.80;65.30
11597;DHT22;5854;48.072;16.286;2022-07-05T15:49:13;22.70;66.80
11597;DHT22;5854;48.072;16.286;2022-07-05T15:51:40;22.70;66.70
11597;DHT22;5854;48.072;16.286;2022-07-05T15:54:07;22.60;67.10
11597;DHT22;5854;48.072;16.286;2022-07-05T15:56:34;22.60;67.60
11597;DHT22;5854;48.072;16.286;2022-07-05T15:59:01;22.50;68.50
11597;DHT22;5854;48.072;16.286;2022-07-05T16:01:29;22.40;67.80
11597;DHT22;5854;48.072;16.286;2022-07-05T16:03:57;22.30;68.70
11597;DHT22;5854;48.072;16.286;2022-07-05T16:06:26;22.30;68.40
11597;DHT22;5854;48.072;16.286;2022-07-05T16:08:54;22.20;68.60
11597;DHT22;5854;48.072;16.286;2022-07-05T16:11:21;22.30;69.20
11597;DHT22;5854;48.072;16.286;2022-07-05T16:42:48;23.70;63.00
11597;DHT22;5854;48.072;16.286;2022-07-05T16:45:16;23.50;63.20
11597;DHT22;5854;48.072;16.286;2022-07-05T16:47:52;23.50;63.70
11597;DHT22;5854;48.072;16.286;2022-07-05T16:53:44;23.80;63.80
11597;DHT22;5854;48.072;16.286;2022-07-05T16:56:13;23.80;62.90
11597;DHT22;5854;48.072;16.286;2022-07-05T16:58:43;23.50;63.40
11597;DHT22;5854;48.072;16.286;2022-07-05T17:01:12;23.30;64.60
11597;DHT22;5854;48.072;16.286;2022-07-05T17:03:41;23.20;64.70
11597;DHT22;5854;48.072;16.286;2022-07-05T17:06:11;23.10;65.60
11597;DHT22;5854;48.072;16.286;2022-07-05T17:08:40;23.00;66.00
11597;DHT22;5854;48.072;16.286;2022-07-05T17:11:09;23.10;66.20
11597;DHT22;5854;48.072;16.286;2022-07-05T17:13:41;23.00;66.30
11597;DHT22;5854;48.072;16.286;2022-07-05T17:16:12;22.80;67.00
11597;DHT22;5854;48.072;16.286;2022-07-05T17:18:43;22.70;67.60
11597;DHT22;5854;48.072;16.286;2022-07-05T17:21:12;22.50;69.10
11597;DHT22;5854;48.072;16.286;2022-07-05T17:23:40;22.40;69.50
11597;DHT22;5854;48.072;16.286;2022-07-05T17:26:11;22.30;70.20
11597;DHT22;5854;48.072;16.286;2022-07-05T17:28:42;22.40;70.20
11597;DHT22;5854;48.072;16.286;2022-07-05T17:31:10;22.30;69.50
11597;DHT22;5854;48.072;16.286;2022-07-05T17:33:38;22.10;69.70
11597;DHT22;5854;48.072;16.286;2022-07-05T17:36:06;22.10;69.20
11597;DHT22;5854;48.072;16.286;2022-07-05T17:38:34;22.10;67.50
11597;DHT22;5854;48.072;16.286;2022-07-05T17:41:02;22.00;67.30
11597;DHT22;5854;48.072;16.286;2022-07-05T17:43:29;22.00;67.10
11597;DHT22;5854;48.072;16.286;2022-07-05T17:45:58;21.90;67.30
11597;DHT22;5854;48.072;16.286;2022-07-05T17:48:25;22.00;67.30
11597;DHT22;5854;48.072;16.286;2022-07-05T17:50:58;21.90;67.20
11597;DHT22;5854;48.072;16.286;2022-07-05T17:53:27;22.00;67.50
11597;DHT22;5854;48.072;16.286;2022-07-05T17:56:00;22.00;67.30
11597;DHT22;5854;48.072;16.286;2022-07-05T17:58:27;21.90;67.10
11597;DHT22;5854;48.072;16.286;2022-07-05T18:00:54;21.90;67.30
11597;DHT22;5854;48.072;16.286;2022-07-05T18:03:23;21.90;67.30
11597;DHT22;5854;48.072;16.286;2022-07-05T18:05:51;21.90;66.60
11597;DHT22;5854;48.072;16.286;2022-07-05T18:08:18;21.80;66.80
11597;DHT22;5854;48.072;16.286;2022-07-05T18:10:46;21.70;66.70
11597;DHT22;5854;48.072;16.286;2022-07-05T18:13:15;21.70;67.20
11597;DHT22;5854;48.072;16.286;2022-07-05T18:15:42;21.70;67.00
11597;DHT22;5854;48.072;16.286;2022-07-05T18:18:10;21.80;66.90
11597;DHT22;5854;48.072;16.286;2022-07-05T18:20:42;21.80;65.80
11597;DHT22;5854;48.072;16.286;2022-07-05T18:23:11;21.70;65.60
11597;DHT22;5854;48.072;16.286;2022-07-05T18:25:38;21.70;66.30
11597;DHT22;5854;48.072;16.286;2022-07-05T18:28:07;21.70;66.30
11597;DHT22;5854;48.072;16.286;2022-07-05T18:30:35;21.70;66.10
11597;DHT22;5854;48.072;16.286;2022-07-05T18:33:03;21.70;65.90
11597;DHT22;5854;48.072;16.286;2022-07-05T18:35:30;21.70;65.90
11597;DHT22;5854;48.072;16.286;2022-07-05T18:37:59;21.70;65.70
11597;DHT22;5854;48.072;16.286;2022-07-05T18:40:27;21.70;65.40
11597;DHT22;5854;48.072;16.286;2022-07-05T18:42:56;21.70;65.40
11597;DHT22;5854;48.072;16.286;2022-07-05T18:45:23;21.70;65.10
11597;DHT22;5854;48.072;16.286;2022-07-05T18:47:50;21.70;65.30
11597;DHT22;5854;48.072;16.286;2022-07-05T18:50:18;21.70;65.30
11597;DHT22;5854;48.072;16.286;2022-07-05T18:52:45;21.70;65.20
11597;DHT22;5854;48.072;16.286;2022-07-05T18:55:14;21.60;65.30
11597;DHT22;5854;48.072;16.286;2022-07-05T18:57:41;21.60;65.00
11597;DHT22;5854;48.072;16.286;2022-07-05T19:00:09;21.50;65.80
11597;DHT22;5854;48.072;16.286;2022-07-05T19:02:37;21.40;66.00
11597;DHT22;5854;48.072;16.286;2022-07-05T19:05:06;21.40;66.50
11597;DHT22;5854;48.072;16.286;2022-07-05T19:07:34;21.30;65.70
11597;DHT22;5854;48.072;16.286;2022-07-05T19:10:20;21.30;66.30
11597;DHT22;5854;48.072;16.286;2022-07-05T19:13:04;21.20;65.30
11597;DHT22;5854;48.072;16.286;2022-07-05T19:15:49;21.10;65.30
11597;DHT22;5854;48.072;16.286;2022-07-05T19:18:16;21.10;65.80
11597;DHT22;5854;48.072;16.286;2022-07-05T19:20:43;21.00;66.30
11597;DHT22;5854;48.072;16.286;2022-07-05T19:23:10;20.90;65.50
11597;DHT22;5854;48.072;16.286;2022-07-05T19:25:39;20.90;66.00
11597;DHT22;5854;48.072;16.286;2022-07-05T19:28:08;20.90;65.60
11597;DHT22;5854;48.072;16.286;2022-07-05T19:30:36;20.80;65.20
11597;DHT22;5854;48.072;16.286;2022-07-05T19:33:03;20.90;65.80
11597;DHT22;5854;48.072;16.286;2022-07-05T19:35:30;21.00;65.20
11597;DHT22;5854;48.072;16.286;2022-07-05T19:37:57;21.00;64.10
11597;DHT22;5854;48.072;16.286;2022-07-05T19:40:24;21.00;64.60
11597;DHT22;5854;48.072;16.286;2022-07-05T19:42:54;21.00;64.10
11597;DHT22;5854;48.072;16.286;2022-07-05T19:45:21;21.10;63.70
11597;DHT22;5854;48.072;16.286;2022-07-05T19:47:48;20.90;62.70
11597;DHT22;5854;48.072;16.286;2022-07-05T19:50:16;20.80;62.20
11597;DHT22;5854;48.072;16.286;2022-07-05T19:52:43;20.90;63.40
11597;DHT22;5854;48.072;16.286;2022-07-05T19:55:12;20.90;62.50
11597;DHT22;5854;48.072;16.286;2022-07-05T19:57:39;20.90;62.40
11597;DHT22;5854;48.072;16.286;2022-07-05T20:00:10;20.80;61.50
11597;DHT22;5854;48.072;16.286;2022-07-05T20:02:37;20.80;61.60
11597;DHT22;5854;48.072;16.286;2022-07-05T20:05:05;20.70;61.70
11597;DHT22;5854;48.072;16.286;2022-07-05T20:07:33;20.70;61.30
11597;DHT22;5854;48.072;16.286;2022-07-05T20:10:00;20.70;62.00
11597;DHT22;5854;48.072;16.286;2022-07-05T20:12:28;20.80;59.50
11597;DHT22;5854;48.072;16.286;2022-07-05T20:14:55;20.70;61.80
11597;DHT22;5854;48.072;16.286;2022-07-05T20:17:24;20.90;61.70
11597;DHT22;5854;48.072;16.286;2022-07-05T20:19:51;20.80;60.80
11597;DHT22;5854;48.072;16.286;2022-07-05T20:22:18;20.90;60.10
11597;DHT22;5854;48.072;16.286;2022-07-05T20:24:45;20.80;59.90
11597;DHT22;5854;48.072;16.286;2022-07-05T20:27:13;20.80;60.50